Time,TemperatureF,DewpointF,PressureIn,WindDirection,WindDirectionDegrees,WindSpeedMPH,WindSpeedGustMPH,Humidity,HourlyPrecipIn,Conditions,Clouds,dailyrainin,SoftwareType,DateUTC
2013-07-31 00:02:00,61.8,60.9,30.02,SSW,206,0.0,0.0,97,0.00,,---,0.00,VWS V14.00,2013-07-31 05:02:00,
2013-07-31 00:07:00,61.8,60.9,30.01,SSW,206,0.0,0.0,97,0.00,,---,0.00,VWS V14.00,2013-07-31 05:07:00,
2013-07-31 00:12:00,61.8,60.9,30.01,SSW,206,0.0,0.0,97,0.00,,---,0.00,VWS V14.00,2013-07-31 05:12:00,
2013-07-31 00:17:00,61.7,60.8,30.01,SSW,206,0.0,0.0,97,0.00,,---,0.00,VWS V14.00,2013-07-31 05:17:00,
2013-07-31 00:22:00,61.7,60.8,30.01,SSW,206,0.0,0.0,97,0.00,,---,0.00,VWS V14.00,2013-07-31 05:22:00,
2013-07-31 00:27:00,61.7,60.8,30.01,SSW,206,0.0,0.0,97,0.00,,---,0.00,VWS V14.00,2013-07-31 05:27:00,
2013-07-31 00:32:00,61.7,60.8,30.01,SSW,206,0.0,0.0,97,0.00,,---,0.00,VWS V14.00,2013-07-31 05:32:00,
2013-07-31 00:37:00,61.7,60.8,30.00,SSW,206,0.0,0.0,97,0.00,,---,0.00,VWS V14.00,2013-07-31 05:37:00,
2013-07-31 00:42:00,61.7,60.8,30.00,SSW,206,0.0,0.0,97,0.00,,---,0.00,VWS V14.00,2013-07-31 05:42:00,
2013-07-31 00:47:00,61.7,60.8,30.00,SSW,206,0.0,0.0,97,0.00,,---,0.00,VWS V14.00,2013-07-31 05:47:00,
2013-07-31 00:52:00,61.8,61.2,30.00,South,169,0.0,3.0,98,0.00,,---,0.00,VWS V14.00,2013-07-31 05:52:00,
2013-07-31 00:57:00,61.8,61.2,30.00,SSE,168,0.0,3.0,98,0.00,,---,0.00,VWS V14.00,2013-07-31 05:57:00,
2013-07-31 01:02:00,61.9,61.3,30.00,SSE,168,0.0,3.0,98,0.00,,---,0.00,VWS V14.00,2013-07-31 06:02:00,
2013-07-31 01:07:00,61.8,61.2,30.00,SSE,168,0.0,0.0,98,0.00,,---,0.00,VWS V14.00,2013-07-31 06:07:00,
2013-07-31 01:12:00,61.9,61.3,29.99,SSE,168,0.0,1.0,98,0.00,,---,0.00,VWS V14.00,2013-07-31 06:12:00,
2013-07-31 01:17:00,61.9,61.3,29.99,SSE,168,0.0,1.0,98,0.00,,---,0.00,VWS V14.00,2013-07-31 06:17:00,
2013-07-31 01:22:00,61.9,61.3,29.99,SSE,168,0.0,1.0,98,0.00,,---,0.00,VWS V14.00,2013-07-31 06:22:00,
2013-07-31 01:27:00,61.9,61.3,29.99,SSE,168,0.0,1.0,98,0.00,,---,0.00,VWS V14.00,2013-07-31 06:27:00,
2013-07-31 01:32:00,62.0,61.4,29.98,SSE,168,0.0,1.0,98,0.00,,---,0.00,VWS V14.00,2013-07-31 06:32:00,
2013-07-31 01:37:00,61.9,61.3,29.98,SSE,168,0.0,0.0,98,0.00,,---,0.00,VWS V14.00,2013-07-31 06:37:00,
2013-07-31 01:42:00,61.9,61.3,29.97,SSE,168,0.0,0.0,98,0.00,,---,0.00,VWS V14.00,2013-07-31 06:42:00,
2013-07-31 01:47:00,61.8,61.2,29.97,SSE,168,0.0,0.0,98,0.00,,---,0.00,VWS V14.00,2013-07-31 06:47:00,
2013-07-31 01:52:00,61.7,60.8,29.98,SSE,168,0.0,0.0,97,0.00,,---,0.00,VWS V14.00,2013-07-31 06:52:00,
2013-07-31 01:57:00,61.6,61.0,29.97,SSE,168,0.0,0.0,98,0.00,,---,0.00,VWS V14.00,2013-07-31 06:57:00,
2013-07-31 02:02:00,61.7,61.1,29.97,SSE,168,0.0,0.0,98,0.00,,---,0.00,VWS V14.00,2013-07-31 07:02:00,
2013-07-31 02:07:00,61.7,61.1,29.97,SSE,168,0.0,0.0,98,0.00,,---,0.00,VWS V14.00,2013-07-31 07:07:00,
2013-07-31 02:12:00,61.8,61.2,29.98,SSE,168,0.0,3.0,98,0.00,,---,0.00,VWS V14.00,2013-07-31 07:12:00,
2013-07-31 02:17:00,61.9,61.3,29.98,SE,135,0.0,3.0,98,0.00,,---,0.00,VWS V14.00,2013-07-31 07:17:00,
2013-07-31 02:22:00,62.0,61.4,29.98,South,169,0.0,3.0,98,0.00,,---,0.00,VWS V14.00,2013-07-31 07:22:00,
2013-07-31 02:27:00,62.1,61.5,29.98,South,169,0.0,3.0,98,0.00,,---,0.00,VWS V14.00,2013-07-31 07:27:00,
2013-07-31 02:32:00,62.1,61.5,29.98,South,169,0.0,3.0,98,0.00,,---,0.00,VWS V14.00,2013-07-31 07:32:00,
2013-07-31 02:37:00,62.1,61.5,29.98,South,169,0.0,1.0,98,0.00,,---,0.00,VWS V14.00,2013-07-31 07:37:00,
2013-07-31 02:42:00,62.1,61.5,29.98,South,169,0.0,1.0,98,0.00,,---,0.00,VWS V14.00,2013-07-31 07:42:00,
2013-07-31 02:47:00,62.0,61.4,29.98,South,169,0.0,1.0,98,0.00,,---,0.00,VWS V14.00,2013-07-31 07:47:00,
2013-07-31 02:52:00,61.9,61.0,29.98,South,169,0.0,0.0,97,0.00,,---,0.00,VWS V14.00,2013-07-31 07:52:00,
2013-07-31 02:57:00,61.8,61.2,29.98,South,169,0.0,0.0,98,0.00,,---,0.00,VWS V14.00,2013-07-31 07:57:00,
2013-07-31 03:02:00,61.7,61.1,29.98,South,169,0.0,0.0,98,0.00,,---,0.00,VWS V14.00,2013-07-31 08:02:00,
2013-07-31 03:07:00,61.7,61.1,29.98,South,169,0.0,0.0,98,0.00,,---,0.00,VWS V14.00,2013-07-31 08:07:00,
2013-07-31 03:12:00,61.6,61.0,29.98,South,169,0.0,1.0,98,0.00,,---,0.00,VWS V14.00,2013-07-31 08:12:00,
2013-07-31 03:17:00,61.6,61.0,29.97,South,169,0.0,1.0,98,0.00,,---,0.00,VWS V14.00,2013-07-31 08:17:00,
2013-07-31 03:22:00,61.6,61.0,29.97,South,169,0.0,0.0,98,0.00,,---,0.00,VWS V14.00,2013-07-31 08:22:00,
2013-07-31 03:27:00,61.6,61.0,29.97,South,169,0.0,0.0,98,0.00,,---,0.00,VWS V14.00,2013-07-31 08:27:00,
2013-07-31 03:32:00,61.6,61.0,29.97,South,169,0.0,0.0,98,0.00,,---,0.00,VWS V14.00,2013-07-31 08:32:00,
2013-07-31 03:37:00,61.6,61.0,29.97,South,169,0.0,0.0,98,0.00,,---,0.00,VWS V14.00,2013-07-31 08:37:00,
2013-07-31 03:42:00,61.6,61.0,29.97,South,169,0.0,0.0,98,0.00,,---,0.00,VWS V14.00,2013-07-31 08:42:00,
2013-07-31 03:47:00,61.6,61.0,29.97,South,169,0.0,0.0,98,0.00,,---,0.00,VWS V14.00,2013-07-31 08:47:00,
2013-07-31 03:52:00,61.6,61.0,29.97,South,169,0.0,2.0,98,0.00,,---,0.00,VWS V14.00,2013-07-31 08:52:00,
2013-07-31 03:57:00,61.6,61.0,29.97,South,169,0.0,2.0,98,0.00,,---,0.00,VWS V14.00,2013-07-31 08:57:00,
2013-07-31 04:02:00,61.5,60.9,29.97,South,169,0.0,2.0,98,0.00,,---,0.00,VWS V14.00,2013-07-31 09:02:00,
2013-07-31 04:07:00,61.5,60.9,29.97,South,169,0.0,2.0,98,0.00,,---,0.00,VWS V14.00,2013-07-31 09:07:00,
2013-07-31 04:12:00,61.4,60.8,29.97,SSW,204,2.0,3.0,98,0.00,,---,0.00,VWS V14.00,2013-07-31 09:12:00,
2013-07-31 04:17:00,61.5,60.9,29.98,WSW,240,3.0,4.0,98,0.00,,---,0.00,VWS V14.00,2013-07-31 09:17:00,
2013-07-31 04:22:00,61.4,60.8,29.98,WSW,241,1.0,3.0,98,0.00,,---,0.00,VWS V14.00,2013-07-31 09:22:00,
2013-07-31 04:27:00,61.4,60.8,29.97,WSW,249,2.0,5.0,98,0.00,,---,0.00,VWS V14.00,2013-07-31 09:27:00,
2013-07-31 04:32:00,61.5,60.9,29.97,WSW,249,0.0,5.0,98,0.00,,---,0.00,VWS V14.00,2013-07-31 09:32:00,
2013-07-31 04:37:00,61.4,60.8,29.97,West,261,0.0,1.0,98,0.00,,---,0.00,VWS V14.00,2013-07-31 09:37:00,
2013-07-31 04:42:00,61.4,60.8,29.97,SW,236,0.0,5.0,98,0.00,,---,0.00,VWS V14.00,2013-07-31 09:42:00,
2013-07-31 04:47:00,61.3,60.7,29.97,WSW,237,0.0,5.0,98,0.00,,---,0.00,VWS V14.00,2013-07-31 09:47:00,
2013-07-31 04:52:00,61.3,60.7,29.97,WSW,237,0.0,0.0,98,0.00,,---,0.00,VWS V14.00,2013-07-31 09:52:00,
2013-07-31 04:57:00,61.2,60.6,29.97,SW,236,0.0,2.0,98,0.00,,---,0.00,VWS V14.00,2013-07-31 09:57:00,
2013-07-31 05:02:00,61.2,60.6,29.97,SW,236,0.0,2.0,98,0.00,,---,0.00,VWS V14.00,2013-07-31 10:02:00,
2013-07-31 05:07:00,61.1,60.5,29.97,SW,236,0.0,3.0,98,0.00,,---,0.00,VWS V14.00,2013-07-31 10:07:00,
2013-07-31 05:12:00,60.9,60.3,29.97,SW,236,0.0,3.0,98,0.00,,---,0.00,VWS V14.00,2013-07-31 10:12:00,
2013-07-31 05:17:00,60.9,60.3,29.97,West,265,0.0,3.0,98,0.00,,---,0.00,VWS V14.00,2013-07-31 10:17:00,
2013-07-31 05:22:00,60.8,60.2,29.97,West,265,0.0,0.0,98,0.00,,---,0.00,VWS V14.00,2013-07-31 10:22:00,
2013-07-31 05:27:00,60.7,59.8,29.98,West,261,2.0,3.0,97,0.00,,---,0.00,VWS V14.00,2013-07-31 10:27:00,
2013-07-31 05:32:00,60.6,59.8,29.98,WSW,238,0.0,4.0,97,0.00,,---,0.00,VWS V14.00,2013-07-31 10:32:00,
2013-07-31 05:37:00,60.5,59.7,29.98,WSW,240,0.0,3.0,97,0.00,,---,0.00,VWS V14.00,2013-07-31 10:37:00,
2013-07-31 05:42:00,60.4,59.5,29.98,SW,230,3.0,4.0,97,0.00,,---,0.00,VWS V14.00,2013-07-31 10:42:00,
2013-07-31 05:47:00,60.3,59.5,29.99,WSW,238,2.0,4.0,97,0.00,,---,0.00,VWS V14.00,2013-07-31 10:47:00,
2013-07-31 05:52:00,60.2,59.3,29.99,WSW,244,2.0,4.0,97,0.00,,---,0.00,VWS V14.00,2013-07-31 10:52:00,
2013-07-31 05:57:00,60.2,59.3,29.99,WSW,250,0.0,4.0,97,0.00,,---,0.00,VWS V14.00,2013-07-31 10:57:00,
2013-07-31 06:02:00,60.2,59.3,29.98,WSW,242,0.0,4.0,97,0.00,,---,0.00,VWS V14.00,2013-07-31 11:02:00,
2013-07-31 06:07:00,60.2,59.3,29.98,WSW,242,0.0,0.0,97,0.00,,---,0.00,VWS V14.00,2013-07-31 11:07:00,
2013-07-31 06:12:00,60.2,59.3,29.99,SSW,197,0.0,4.0,97,0.00,,---,0.00,VWS V14.00,2013-07-31 11:12:00,
2013-07-31 06:17:00,60.2,59.3,29.99,WNW,301,0.0,4.0,97,0.00,,---,0.00,VWS V14.00,2013-07-31 11:17:00,
2013-07-31 06:22:00,60.2,59.3,29.99,WNW,300,0.0,0.0,97,0.00,,---,0.00,VWS V14.00,2013-07-31 11:22:00,
2013-07-31 06:27:00,60.2,59.3,30.00,SW,219,0.0,2.0,97,0.00,,---,0.00,VWS V14.00,2013-07-31 11:27:00,
2013-07-31 06:32:00,60.2,59.3,29.99,SW,219,0.0,2.0,97,0.00,,---,0.00,VWS V14.00,2013-07-31 11:32:00,
2013-07-31 06:38:00,60.2,59.3,29.99,West,275,0.0,3.0,97,0.00,,---,0.00,VWS V14.00,2013-07-31 11:38:00,
2013-07-31 06:43:00,60.2,59.3,29.99,SSE,162,0.0,3.0,97,0.00,,---,0.00,VWS V14.00,2013-07-31 11:43:00,
2013-07-31 06:48:00,60.3,59.5,29.99,South,188,0.0,3.0,97,0.00,,---,0.00,VWS V14.00,2013-07-31 11:48:00,
2013-07-31 06:53:00,60.3,59.5,29.98,South,188,0.0,0.0,97,0.00,,---,0.00,VWS V14.00,2013-07-31 11:53:00,
2013-07-31 06:58:00,60.3,59.5,29.97,South,180,0.0,2.0,97,0.00,,---,0.00,VWS V14.00,2013-07-31 11:58:00,
2013-07-31 07:03:00,60.4,59.5,29.97,SSW,200,2.0,5.0,97,0.00,,---,0.00,VWS V14.00,2013-07-31 12:03:00,
2013-07-31 07:08:00,60.5,59.7,29.98,South,188,0.0,5.0,97,0.00,,---,0.00,VWS V14.00,2013-07-31 12:08:00,
2013-07-31 07:13:00,60.5,59.7,29.98,South,188,0.0,5.0,97,0.00,,---,0.00,VWS V14.00,2013-07-31 12:13:00,
2013-07-31 07:18:00,60.6,59.8,29.97,West,264,2.0,5.0,97,0.00,,---,0.00,VWS V14.00,2013-07-31 12:18:00,
2013-07-31 07:23:00,60.7,59.8,29.97,SSW,200,0.0,3.0,97,0.00,,---,0.00,VWS V14.00,2013-07-31 12:23:00,
2013-07-31 07:28:00,60.8,59.7,29.98,SW,236,0.0,3.0,96,0.00,,---,0.00,VWS V14.00,2013-07-31 12:28:00,
2013-07-31 07:33:00,61.0,59.9,29.98,SW,233,0.0,5.0,96,0.00,,---,0.00,VWS V14.00,2013-07-31 12:33:00,
2013-07-31 07:38:00,61.1,60.0,29.99,SSW,207,5.0,5.0,96,0.00,,---,0.00,VWS V14.00,2013-07-31 12:38:00,
2013-07-31 07:43:00,61.3,60.2,29.99,WSW,258,1.0,5.0,96,0.00,,---,0.00,VWS V14.00,2013-07-31 12:43:00,
2013-07-31 07:48:00,61.4,60.2,29.99,South,177,1.0,7.0,96,0.00,,---,0.00,VWS V14.00,2013-07-31 12:48:00,
2013-07-31 07:53:00,61.6,60.2,29.99,SW,219,2.0,7.0,95,0.00,,---,0.00,VWS V14.00,2013-07-31 12:53:00,
2013-07-31 07:58:00,61.7,60.3,29.98,SSW,198,3.0,9.0,95,0.00,,---,0.00,VWS V14.00,2013-07-31 12:58:00,
2013-07-31 08:03:00,61.9,60.5,29.98,WSW,238,4.0,9.0,95,0.00,,---,0.00,VWS V14.00,2013-07-31 13:03:00,
2013-07-31 08:08:00,62.1,60.4,29.99,West,265,3.0,8.0,94,0.00,,---,0.00,VWS V14.00,2013-07-31 13:08:00,
2013-07-31 08:13:00,62.2,60.5,29.98,West,265,2.0,8.0,94,0.00,,---,0.00,VWS V14.00,2013-07-31 13:13:00,
2013-07-31 08:18:00,62.3,60.6,29.98,SSW,194,0.0,8.0,94,0.00,,---,0.00,VWS V14.00,2013-07-31 13:18:00,
2013-07-31 08:23:00,62.4,60.3,29.98,SSE,167,0.0,5.0,93,0.00,,---,0.00,VWS V14.00,2013-07-31 13:23:00,
2013-07-31 08:28:00,62.5,60.5,29.98,SSE,168,3.0,5.0,93,0.00,,---,0.00,VWS V14.00,2013-07-31 13:28:00,
2013-07-31 08:33:00,62.5,60.5,29.98,South,180,2.0,5.0,93,0.00,,---,0.00,VWS V14.00,2013-07-31 13:33:00,
2013-07-31 08:38:00,62.4,60.3,29.97,WSW,238,3.0,4.0,93,0.00,,---,0.00,VWS V14.00,2013-07-31 13:38:00,
2013-07-31 08:43:00,62.4,60.3,29.97,SSW,206,0.0,4.0,93,0.00,,---,0.00,VWS V14.00,2013-07-31 13:43:00,
2013-07-31 08:48:00,62.4,60.3,29.97,South,180,2.0,4.0,93,0.00,,---,0.00,VWS V14.00,2013-07-31 13:48:00,
2013-07-31 08:53:00,62.4,60.7,29.96,SSE,156,0.0,4.0,94,0.00,,---,0.00,VWS V14.00,2013-07-31 13:53:00,
2013-07-31 08:58:00,62.3,60.2,29.96,SSE,155,2.0,4.0,93,0.00,,---,0.00,VWS V14.00,2013-07-31 13:58:00,
2013-07-31 09:03:00,62.3,60.6,29.96,SSE,159,0.0,4.0,94,0.00,,---,0.00,VWS V14.00,2013-07-31 14:03:00,
2013-07-31 09:08:00,62.4,60.7,29.96,SSE,159,0.0,2.0,94,0.00,,---,0.00,VWS V14.00,2013-07-31 14:08:00,
2013-07-31 09:13:00,62.4,60.3,29.95,South,169,0.0,5.0,93,0.00,,---,0.00,VWS V14.00,2013-07-31 14:13:00,
2013-07-31 09:18:00,62.6,60.8,29.95,SW,219,0.0,5.0,94,0.00,,---,0.00,VWS V14.00,2013-07-31 14:18:00,
2013-07-31 09:23:00,62.9,61.2,29.95,SSE,168,2.0,4.0,94,0.00,,---,0.00,VWS V14.00,2013-07-31 14:23:00,
2013-07-31 09:28:00,63.2,61.2,29.95,SE,145,1.0,5.0,93,0.00,,---,0.00,VWS V14.00,2013-07-31 14:28:00,
2013-07-31 09:33:00,63.4,61.0,29.95,SE,138,3.0,7.0,92,0.00,,---,0.00,VWS V14.00,2013-07-31 14:33:00,
2013-07-31 09:38:00,63.7,61.6,29.95,SW,214,4.0,5.0,93,0.00,,---,0.00,VWS V14.00,2013-07-31 14:38:00,
2013-07-31 09:43:00,64.1,61.4,29.95,SSW,199,2.0,5.0,91,0.00,,---,0.00,VWS V14.00,2013-07-31 14:43:00,
2013-07-31 09:48:00,64.3,61.3,29.95,West,262,2.0,7.0,90,0.00,,---,0.00,VWS V14.00,2013-07-31 14:48:00,
2013-07-31 09:53:00,64.4,61.4,29.95,SE,146,5.0,9.0,90,0.00,,---,0.00,VWS V14.00,2013-07-31 14:53:00,
2013-07-31 09:58:00,64.6,61.6,29.95,SSE,163,2.0,9.0,90,0.00,,---,0.00,VWS V14.00,2013-07-31 14:58:00,
2013-07-31 10:03:00,64.7,61.7,29.95,SSE,152,0.0,9.0,90,0.00,,---,0.00,VWS V14.00,2013-07-31 15:03:00,
2013-07-31 10:08:00,64.9,61.9,29.95,South,187,1.0,6.0,90,0.00,,---,0.00,VWS V14.00,2013-07-31 15:08:00,
2013-07-31 10:13:00,64.9,61.9,29.95,West,262,1.0,6.0,90,0.00,,---,0.00,VWS V14.00,2013-07-31 15:13:00,
2013-07-31 10:18:00,65.0,61.7,29.95,SW,224,4.0,6.0,89,0.00,,---,0.00,VWS V14.00,2013-07-31 15:18:00,
2013-07-31 10:23:00,65.1,61.8,29.95,WSW,238,1.0,5.0,89,0.00,,---,0.00,VWS V14.00,2013-07-31 15:23:00,
2013-07-31 10:28:00,65.4,61.8,29.95,SE,144,0.0,5.0,88,0.00,,---,0.00,VWS V14.00,2013-07-31 15:28:00,
2013-07-31 10:33:00,65.6,61.6,29.95,SSE,152,1.0,5.0,87,0.00,,---,0.00,VWS V14.00,2013-07-31 15:33:00,